sensor_id;sensor_type;location;lat;lon;timestamp;P1;durP1;ratioP1;P2;durP2;ratioP2
14939;SDS011;11825;51.898;8.202;2023-03-30T00:04:09;7.67;;;2.50;;
14939;SDS011;11825;51.898;8.202;2023-03-30T00:09:18;3.50;;;2.47;;
14939;SDS011;11825;51.898;8.202;2023-03-30T00:14:54;3.97;;;3.03;;
14939;SDS011;11825;51.898;8.202;2023-03-30T00:20:16;6.70;;;2.93;;
14939;SDS011;11825;51.898;8.202;2023-03-30T00:31:01;4.83;;;2.93;;
14939;SDS011;11825;51.898;8.202;2023-03-30T00:36:22;3.90;;;2.70;;
14939;SDS011;11825;51.898;8.202;2023-03-30T00:41:49;4.90;;;2.57;;
14939;SDS011;11825;51.898;8.202;2023-03-30T00:47:00;5.97;;;3.50;;
14939;SDS011;11825;51.898;8.202;2023-03-30T00:52:12;5.10;;;2.33;;
14939;SDS011;11825;51.898;8.202;2023-03-30T00:57:22;4.27;;;2.33;;
14939;SDS011;11825;51.898;8.202;2023-03-30T01:02:39;2.70;;;2.30;;
14939;SDS011;11825;51.898;8.202;2023-03-30T01:08:07;3.53;;;2.83;;
14939;SDS011;11825;51.898;8.202;2023-03-30T01:13:19;6.87;;;2.90;;
14939;SDS011;11825;51.898;8.202;2023-03-30T01:54:04;9.73;;;7.70;;
14939;SDS011;11825;51.898;8.202;2023-03-30T01:59:23;13.60;;;11.60;;
14939;SDS011;11825;51.898;8.202;2023-03-30T02:04:41;20.23;;;15.47;;
14939;SDS011;11825;51.898;8.202;2023-03-30T02:09:49;18.80;;;15.57;;
14939;SDS011;11825;51.898;8.202;2023-03-30T02:14:58;20.37;;;15.87;;
14939;SDS011;11825;51.898;8.202;2023-03-30T02:20:05;20.30;;;17.43;;
14939;SDS011;11825;51.898;8.202;2023-03-30T02:25:34;20.70;;;16.23;;
14939;SDS011;11825;51.898;8.202;2023-03-30T02:30:41;23.17;;;15.63;;
14939;SDS011;11825;51.898;8.202;2023-03-30T02:36:11;30.47;;;19.80;;
14939;SDS011;11825;51.898;8.202;2023-03-30T02:52:55;15.50;;;13.90;;
14939;SDS011;11825;51.898;8.202;2023-03-30T03:10:28;9.97;;;5.23;;
14939;SDS011;11825;51.898;8.202;2023-03-30T03:15:33;6.07;;;4.43;;
14939;SDS011;11825;51.898;8.202;2023-03-30T03:20:53;5.20;;;3.93;;
14939;SDS011;11825;51.898;8.202;2023-03-30T03:26:16;9.20;;;4.33;;
14939;SDS011;11825;51.898;8.202;2023-03-30T03:31:28;6.63;;;3.73;;
14939;SDS011;11825;51.898;8.202;2023-03-30T03:36:48;7.23;;;4.30;;
14939;SDS011;11825;51.898;8.202;2023-03-30T03:41:53;9.03;;;5.53;;
14939;SDS011;11825;51.898;8.202;2023-03-30T03:47:00;11.30;;;5.87;;
14939;SDS011;11825;51.898;8.202;2023-03-30T03:52:13;8.50;;;7.17;;
14939;SDS011;11825;51.898;8.202;2023-03-30T03:57:25;8.33;;;6.33;;
14939;SDS011;11825;51.898;8.202;2023-03-30T04:02:49;8.50;;;6.73;;
14939;SDS011;11825;51.898;8.202;2023-03-30T04:07:57;6.07;;;5.43;;
14939;SDS011;11825;51.898;8.202;2023-03-30T04:13:11;8.73;;;5.27;;
14939;SDS011;11825;51.898;8.202;2023-03-30T04:18:40;8.13;;;4.40;;
14939;SDS011;11825;51.898;8.202;2023-03-30T04:23:53;5.17;;;3.50;;
14939;SDS011;11825;51.898;8.202;2023-03-30T04:28:57;5.37;;;3.47;;
14939;SDS011;11825;51.898;8.202;2023-03-30T04:34:18;6.43;;;2.73;;
14939;SDS011;11825;51.898;8.202;2023-03-30T04:39:40;5.73;;;2.80;;
14939;SDS011;11825;51.898;8.202;2023-03-30T04:45:14;2.93;;;2.43;;
14939;SDS011;11825;51.898;8.202;2023-03-30T04:50:41;5.20;;;2.37;;
14939;SDS011;11825;51.898;8.202;2023-03-30T04:55:49;4.93;;;2.10;;
14939;SDS011;11825;51.898;8.202;2023-03-30T05:01:15;3.60;;;2.23;;
14939;SDS011;11825;51.898;8.202;2023-03-30T05:06:39;5.33;;;2.37;;
14939;SDS011;11825;51.898;8.202;2023-03-30T05:11:44;4.40;;;2.67;;
14939;SDS011;11825;51.898;8.202;2023-03-30T05:16:55;6.03;;;2.47;;
14939;SDS011;11825;51.898;8.202;2023-03-30T05:22:59;4.10;;;2.63;;
14939;SDS011;11825;51.898;8.202;2023-03-30T05:28:13;7.57;;;2.40;;
14939;SDS011;11825;51.898;8.202;2023-03-30T05:33:35;5.87;;;2.00;;
14939;SDS011;11825;51.898;8.202;2023-03-30T05:38:56;4.60;;;1.80;;
14939;SDS011;11825;51.898;8.202;2023-03-30T05:49:54;2.37;;;1.40;;
14939;SDS011;11825;51.898;8.202;2023-03-30T05:55:12;4.30;;;2.10;;
14939;SDS011;11825;51.898;8.202;2023-03-30T06:00:31;7.57;;;1.90;;
14939;SDS011;11825;51.898;8.202;2023-03-30T06:06:19;3.90;;;1.47;;
14939;SDS011;11825;51.898;8.202;2023-03-30T06:17:38;3.77;;;1.60;;
14939;SDS011;11825;51.898;8.202;2023-03-30T06:23:25;5.00;;;2.23;;
14939;SDS011;11825;51.898;8.202;2023-03-30T06:28:49;5.23;;;2.40;;
14939;SDS011;11825;51.898;8.202;2023-03-30T06:39:54;3.73;;;1.80;;
14939;SDS011;11825;51.898;8.202;2023-03-30T06:45:25;4.27;;;2.37;;
14939;SDS011;11825;51.898;8.202;2023-03-30T06:51:00;4.53;;;2.47;;
14939;SDS011;11825;51.898;8.202;2023-03-30T07:02:25;2.73;;;2.03;;
14939;SDS011;11825;51.898;8.202;2023-03-30T07:07:45;3.23;;;2.07;;
14939;SDS011;11825;51.898;8.202;2023-03-30T07:13:03;2.93;;;2.30;;
14939;SDS011;11825;51.898;8.202;2023-03-30T07:18:23;6.13;;;2.37;;
14939;SDS011;11825;51.898;8.202;2023-03-30T07:24:00;7.67;;;2.67;;
14939;SDS011;11825;51.898;8.202;2023-03-30T07:29:13;7.83;;;2.73;;
14939;SDS011;11825;51.898;8.202;2023-03-30T07:34:42;4.10;;;2.27;;
14939;SDS011;11825;51.898;8.202;2023-03-30T07:40:03;7.33;;;1.63;;
14939;SDS011;11825;51.898;8.202;2023-03-30T07:45:33;3.47;;;2.37;;
14939;SDS011;11825;51.898;8.202;2023-03-30T07:51:18;7.73;;;2.03;;
14939;SDS011;11825;51.898;8.202;2023-03-30T07:56:49;2.87;;;1.80;;
14939;SDS011;11825;51.898;8.202;2023-03-30T08:01:56;3.33;;;1.67;;
14939;SDS011;11825;51.898;8.202;2023-03-30T08:07:20;3.60;;;1.77;;
14939;SDS011;11825;51.898;8.202;2023-03-30T08:12:45;5.03;;;2.57;;
14939;SDS011;11825;51.898;8.202;2023-03-30T08:18:03;9.37;;;2.80;;
14939;SDS011;11825;51.898;8.202;2023-03-30T08:23:22;5.40;;;2.00;;
14939;SDS011;11825;51.898;8.202;2023-03-30T08:29:10;5.57;;;2.10;;
14939;SDS011;11825;51.898;8.202;2023-03-30T08:34:31;3.90;;;2.27;;
14939;SDS011;11825;51.898;8.202;2023-03-30T08:39:45;4.60;;;2.23;;
14939;SDS011;11825;51.898;8.202;2023-03-30T08:45:33;7.77;;;2.63;;
14939;SDS011;11825;51.898;8.202;2023-03-30T08:51:00;4.43;;;2.30;;
14939;SDS011;11825;51.898;8.202;2023-03-30T09:03:12;5.07;;;2.27;;
14939;SDS011;11825;51.898;8.202;2023-03-30T09:09:01;6.57;;;2.93;;
14939;SDS011;11825;51.898;8.202;2023-03-30T09:14:11;5.50;;;2.27;;
14939;SDS011;11825;51.898;8.202;2023-03-30T09:19:31;6.27;;;2.60;;
14939;SDS011;11825;51.898;8.202;2023-03-30T09:30:56;2.30;;;1.87;;
14939;SDS011;11825;51.898;8.202;2023-03-30T09:36:43;6.93;;;2.07;;
14939;SDS011;11825;51.898;8.202;2023-03-30T09:47:44;3.80;;;2.70;;
14939;SDS011;11825;51.898;8.202;2023-03-30T09:58:39;12.20;;;7.90;;
14939;SDS011;11825;51.898;8.202;2023-03-30T10:04:11;7.00;;;4.43;;
14939;SDS011;11825;51.898;8.202;2023-03-30T10:09:40;7.53;;;2.97;;
14939;SDS011;11825;51.898;8.202;2023-03-30T10:15:28;6.53;;;2.57;;
14939;SDS011;11825;51.898;8.202;2023-03-30T10:21:13;4.60;;;1.97;;
14939;SDS011;11825;51.898;8.202;2023-03-30T10:26:34;5.97;;;1.87;;
14939;SDS011;11825;51.898;8.202;2023-03-30T10:32:21;4.97;;;1.43;;
14939;SDS011;11825;51.898;8.202;2023-03-30T10:37:55;3.40;;;1.80;;
14939;SDS011;11825;51.898;8.202;2023-03-30T10:43:27;8.17;;;2.07;;
14939;SDS011;11825;51.898;8.202;2023-03-30T10:54:43;4.93;;;2.23;;
14939;SDS011;11825;51.898;8.202;2023-03-30T11:00:18;5.23;;;1.80;;
14939;SDS011;11825;51.898;8.202;2023-03-30T11:05:37;4.60;;;1.63;;
14939;SDS011;11825;51.898;8.202;2023-03-30T11:11:03;3.57;;;1.50;;
14939;SDS011;11825;51.898;8.202;2023-03-30T11:16:46;6.37;;;2.10;;
14939;SDS011;11825;51.898;8.202;2023-03-30T11:22:43;7.30;;;1.40;;
14939;SDS011;11825;51.898;8.202;2023-03-30T11:34:15;4.97;;;1.93;;
14939;SDS011;11825;51.898;8.202;2023-03-30T11:40:25;3.77;;;1.40;;
14939;SDS011;11825;51.898;8.202;2023-03-30T11:46:08;5.97;;;1.50;;
14939;SDS011;11825;51.898;8.202;2023-03-30T12:04:11;4.43;;;1.70;;
14939;SDS011;11825;51.898;8.202;2023-03-30T12:09:41;7.13;;;2.00;;
14939;SDS011;11825;51.898;8.202;2023-03-30T12:26:25;11.50;;;2.37;;
14939;SDS011;11825;51.898;8.202;2023-03-30T12:38:05;4.33;;;3.00;;
14939;SDS011;11825;51.898;8.202;2023-03-30T12:49:10;3.73;;;1.83;;
14939;SDS011;11825;51.898;8.202;2023-03-30T12:54:57;3.80;;;1.40;;
14939;SDS011;11825;51.898;8.202;2023-03-30T13:05:39;6.30;;;2.47;;
14939;SDS011;11825;51.898;8.202;2023-03-30T13:11:16;5.93;;;1.77;;
14939;SDS011;11825;51.898;8.202;2023-03-30T13:16:44;6.87;;;2.90;;
14939;SDS011;11825;51.898;8.202;2023-03-30T13:27:39;8.07;;;3.27;;
14939;SDS011;11825;51.898;8.202;2023-03-30T13:54:27;4.47;;;2.83;;
14939;SDS011;11825;51.898;8.202;2023-03-30T14:00:03;9.03;;;3.03;;
14939;SDS011;11825;51.898;8.202;2023-03-30T14:05:18;8.73;;;2.50;;
14939;SDS011;11825;51.898;8.202;2023-03-30T14:10:34;9.67;;;2.63;;
14939;SDS011;11825;51.898;8.202;2023-03-30T14:15:50;10.43;;;2.20;;
14939;SDS011;11825;51.898;8.202;2023-03-30T14:21:05;6.77;;;2.17;;
14939;SDS011;11825;51.898;8.202;2023-03-30T14:26:37;7.20;;;1.73;;
14939;SDS011;11825;51.898;8.202;2023-03-30T14:31:45;4.67;;;1.47;;
14939;SDS011;11825;51.898;8.202;2023-03-30T14:37:15;3.63;;;1.43;;
14939;SDS011;11825;51.898;8.202;2023-03-30T14:42:38;3.77;;;1.60;;
14939;SDS011;11825;51.898;8.202;2023-03-30T14:54:26;3.37;;;2.07;;
14939;SDS011;11825;51.898;8.202;2023-03-30T14:59:33;4.63;;;2.47;;
14939;SDS011;11825;51.898;8.202;2023-03-30T15:05:06;5.83;;;2.37;;
14939;SDS011;11825;51.898;8.202;2023-03-30T15:15:37;6.63;;;2.20;;
14939;SDS011;11825;51.898;8.202;2023-03-30T15:20:56;3.53;;;2.23;;
14939;SDS011;11825;51.898;8.202;2023-03-30T15:26:11;6.03;;;2.90;;
14939;SDS011;11825;51.898;8.202;2023-03-30T15:31:18;4.80;;;2.53;;
14939;SDS011;11825;51.898;8.202;2023-03-30T15:36:37;6.33;;;2.20;;
14939;SDS011;11825;51.898;8.202;2023-03-30T15:41:45;6.03;;;4.43;;
14939;SDS011;11825;51.898;8.202;2023-03-30T15:46:54;8.50;;;5.60;;
14939;SDS011;11825;51.898;8.202;2023-03-30T15:51:58;6.67;;;4.60;;
14939;SDS011;11825;51.898;8.202;2023-03-30T16:10:03;6.53;;;2.33;;
14939;SDS011;11825;51.898;8.202;2023-03-30T16:20:43;8.37;;;2.73;;
14939;SDS011;11825;51.898;8.202;2023-03-30T16:25:44;7.37;;;3.37;;
14939;SDS011;11825;51.898;8.202;2023-03-30T16:30:52;3.87;;;2.23;;
14939;SDS011;11825;51.898;8.202;2023-03-30T16:36:00;8.20;;;2.50;;
14939;SDS011;11825;51.898;8.202;2023-03-30T16:47:38;9.63;;;3.73;;
14939;SDS011;11825;51.898;8.202;2023-03-30T17:05:50;5.53;;;2.93;;
14939;SDS011;11825;51.898;8.202;2023-03-30T17:11:08;5.17;;;3.17;;
14939;SDS011;11825;51.898;8.202;2023-03-30T17:16:11;6.83;;;3.20;;
14939;SDS011;11825;51.898;8.202;2023-03-30T17:21:21;8.13;;;4.33;;
14939;SDS011;11825;51.898;8.202;2023-03-30T17:26:24;11.47;;;3.83;;
14939;SDS011;11825;51.898;8.202;2023-03-30T17:31:28;5.40;;;2.73;;
14939;SDS011;11825;51.898;8.202;2023-03-30T17:36:37;6.07;;;2.87;;
14939;SDS011;11825;51.898;8.202;2023-03-30T17:41:41;7.27;;;2.63;;
14939;SDS011;11825;51.898;8.202;2023-03-30T17:46:55;6.57;;;2.37;;
14939;SDS011;11825;51.898;8.202;2023-03-30T17:52:05;7.83;;;2.67;;
14939;SDS011;11825;51.898;8.202;2023-03-30T17:57:07;9.67;;;3.20;;
14939;SDS011;11825;51.898;8.202;2023-03-30T18:07:43;11.23;;;3.13;;
14939;SDS011;11825;51.898;8.202;2023-03-30T18:12:53;6.77;;;2.50;;
14939;SDS011;11825;51.898;8.202;2023-03-30T18:18:02;5.60;;;2.77;;
14939;SDS011;11825;51.898;8.202;2023-03-30T18:23:06;5.83;;;2.13;;
14939;SDS011;11825;51.898;8.202;2023-03-30T18:28:22;4.87;;;2.77;;
14939;SDS011;11825;51.898;8.202;2023-03-30T18:33:38;7.00;;;2.57;;
14939;SDS011;11825;51.898;8.202;2023-03-30T18:45:04;6.87;;;2.43;;
14939;SDS011;11825;51.898;8.202;2023-03-30T18:55:41;7.47;;;3.40;;
14939;SDS011;11825;51.898;8.202;2023-03-30T19:13:38;2.87;;;1.83;;
14939;SDS011;11825;51.898;8.202;2023-03-30T19:38:34;5.60;;;2.47;;
14939;SDS011;11825;51.898;8.202;2023-03-30T19:44:21;4.47;;;2.20;;
14939;SDS011;11825;51.898;8.202;2023-03-30T20:02:15;3.60;;;2.07;;
14939;SDS011;11825;51.898;8.202;2023-03-30T20:07:21;4.87;;;2.00;;
14939;SDS011;11825;51.898;8.202;2023-03-30T20:18:59;4.37;;;2.87;;
14939;SDS011;11825;51.898;8.202;2023-03-30T20:30:56;3.47;;;1.97;;
14939;SDS011;11825;51.898;8.202;2023-03-30T21:01:21;4.30;;;1.97;;
14939;SDS011;11825;51.898;8.202;2023-03-30T21:12:58;5.57;;;2.70;;
14939;SDS011;11825;51.898;8.202;2023-03-30T21:30:43;10.67;;;3.63;;
14939;SDS011;11825;51.898;8.202;2023-03-30T21:41:59;8.97;;;3.03;;
14939;SDS011;11825;51.898;8.202;2023-03-30T21:47:11;6.67;;;2.30;;
14939;SDS011;11825;51.898;8.202;2023-03-30T21:52:19;6.83;;;2.23;;
14939;SDS011;11825;51.898;8.202;2023-03-30T21:57:38;8.00;;;2.63;;
14939;SDS011;11825;51.898;8.202;2023-03-30T22:02:50;5.53;;;1.80;;
14939;SDS011;11825;51.898;8.202;2023-03-30T22:07:58;10.27;;;2.13;;
14939;SDS011;11825;51.898;8.202;2023-03-30T22:13:02;4.67;;;2.03;;
14939;SDS011;11825;51.898;8.202;2023-03-30T22:18:07;4.50;;;2.13;;
14939;SDS011;11825;51.898;8.202;2023-03-30T22:23:09;3.83;;;1.93;;
14939;SDS011;11825;51.898;8.202;2023-03-30T22:28:11;12.50;;;2.40;;
14939;SDS011;11825;51.898;8.202;2023-03-30T22:33:17;6.47;;;2.17;;
14939;SDS011;11825;51.898;8.202;2023-03-30T22:38:19;6.20;;;2.20;;
14939;SDS011;11825;51.898;8.202;2023-03-30T22:43:25;6.57;;;1.77;;
14939;SDS011;11825;51.898;8.202;2023-03-30T22:48:27;2.93;;;1.50;;
14939;SDS011;11825;51.898;8.202;2023-03-30T22:53:30;4.70;;;2.27;;
14939;SDS011;11825;51.898;8.202;2023-03-30T22:58:55;3.67;;;1.83;;
14939;SDS011;11825;51.898;8.202;2023-03-30T23:03:58;7.03;;;1.70;;
14939;SDS011;11825;51.898;8.202;2023-03-30T23:09:12;5.53;;;1.77;;
14939;SDS011;11825;51.898;8.202;2023-03-30T23:14:17;7.13;;;1.70;;
14939;SDS011;11825;51.898;8.202;2023-03-30T23:19:25;6.17;;;1.83;;
14939;SDS011;11825;51.898;8.202;2023-03-30T23:24:39;3.27;;;1.33;;
14939;SDS011;11825;51.898;8.202;2023-03-30T23:29:49;4.73;;;2.17;;
14939;SDS011;11825;51.898;8.202;2023-03-30T23:34:57;5.97;;;1.97;;
14939;SDS011;11825;51.898;8.202;2023-03-30T23:40:11;5.30;;;1.50;;
14939;SDS011;11825;51.898;8.202;2023-03-30T23:45:15;3.40;;;1.70;;
14939;SDS011;11825;51.898;8.202;2023-03-30T23:50:22;4.53;;;1.63;;
